createdAt,value
2022-10-04T12:10:00.949Z,1012.41
2022-10-04T12:10:58.625Z,1012.42
2022-10-04T12:11:58.614Z,1012.45
2022-10-04T12:12:58.584Z,1012.45
2022-10-04T12:13:58.578Z,1012.43
2022-10-04T12:14:58.552Z,1012.45
2022-10-04T12:15:58.593Z,1012.46
2022-10-04T12:16:58.579Z,1012.42
2022-10-04T12:17:58.505Z,1012.42
2022-10-04T12:18:58.499Z,1012.36
2022-10-04T12:19:58.479Z,1012.34
2022-10-04T12:20:58.467Z,1012.32
2022-10-04T12:21:58.444Z,1012.28
2022-10-04T12:22:58.451Z,1012.31
2022-10-04T12:23:58.425Z,1012.30
2022-10-04T12:24:58.409Z,1012.25
2022-10-04T12:25:58.397Z,1012.26
2022-10-04T12:26:58.371Z,1012.21
2022-10-04T12:27:58.384Z,1012.17
2022-10-04T12:28:58.350Z,1012.12
2022-10-04T12:29:58.325Z,1012.09
2022-10-04T12:30:58.321Z,1012.13
2022-10-04T12:31:58.373Z,1012.09
2022-10-04T12:32:58.438Z,1012.10
2022-10-04T12:33:58.267Z,1012.10
2022-10-04T12:34:58.267Z,1012.06
2022-10-04T12:35:58.251Z,1012.13
2022-10-04T12:36:58.225Z,1012.08
2022-10-04T12:37:58.233Z,1012.10
2022-10-04T12:38:58.203Z,1012.12
2022-10-04T12:39:58.189Z,1012.10
2022-10-04T12:40:58.168Z,1012.14
2022-10-04T12:41:58.167Z,1012.10
2022-10-04T12:42:58.161Z,1012.08
2022-10-04T12:43:58.126Z,1012.05
2022-10-04T12:44:58.115Z,1012.08
2022-10-04T12:45:58.270Z,1012.08
2022-10-04T12:46:58.095Z,1012.14
2022-10-04T12:47:58.087Z,1012.13
2022-10-04T12:48:58.064Z,1012.15
2022-10-04T12:49:58.046Z,1012.18
2022-10-04T12:50:58.041Z,1012.13
2022-10-04T12:51:58.023Z,1012.17
2022-10-04T12:52:58.030Z,1012.16
2022-10-04T12:53:58.946Z,1012.04
2022-10-04T12:54:57.999Z,1012.03
2022-10-04T12:55:57.969Z,1012.06
2022-10-04T12:56:57.962Z,1012.03
2022-10-04T12:57:57.949Z,1012.06
2022-10-04T12:58:57.939Z,1011.99
2022-10-04T12:59:57.926Z,1012.01
2022-10-04T13:01:02.108Z,1011.97
2022-10-04T13:01:57.949Z,1011.92
2022-10-04T13:02:57.877Z,1011.86
2022-10-04T13:03:57.889Z,1011.86
2022-10-04T13:04:57.860Z,1011.84
2022-10-04T13:05:57.851Z,1011.78
2022-10-04T13:06:57.837Z,1011.83
2022-10-04T13:07:57.817Z,1011.82
2022-10-04T13:08:57.814Z,1011.82
2022-10-04T13:10:22.460Z,1011.82
2022-10-04T13:10:57.783Z,1011.80
2022-10-04T13:11:57.767Z,1011.75
2022-10-04T13:12:59.799Z,1011.72
2022-10-04T13:13:57.754Z,1011.72
2022-10-04T13:14:57.737Z,1011.75
2022-10-04T13:17:57.690Z,1011.68
2022-10-04T13:18:57.689Z,1011.70
2022-10-04T13:19:57.674Z,1011.70
2022-10-04T13:20:57.653Z,1011.72
2022-10-04T13:21:57.653Z,1011.73
2022-10-04T13:22:58.274Z,1011.69
2022-10-04T13:23:57.644Z,1011.65
2022-10-04T13:24:57.620Z,1011.66
2022-10-04T13:26:02.696Z,1011.67
2022-10-04T13:26:57.594Z,1011.68
2022-10-04T13:27:57.624Z,1011.63
2022-10-04T13:28:57.615Z,1011.59
2022-10-04T13:29:57.550Z,1011.58
2022-10-04T13:30:57.546Z,1011.59
2022-10-04T13:31:57.585Z,1011.53
2022-10-04T13:32:57.520Z,1011.56
2022-10-04T13:33:57.528Z,1011.56
2022-10-04T13:34:57.531Z,1011.49
2022-10-04T13:35:57.478Z,1011.50
2022-10-04T13:36:57.465Z,1011.46
2022-10-04T13:37:57.462Z,1011.44
2022-10-04T13:38:57.463Z,1011.46
2022-10-04T13:39:57.440Z,1011.45
2022-10-04T13:40:57.417Z,1011.43
2022-10-04T13:41:57.422Z,1011.43
2022-10-04T13:42:57.406Z,1011.48
2022-10-04T13:43:57.408Z,1011.47
2022-10-04T13:44:57.373Z,1011.52
2022-10-04T13:45:57.441Z,1011.52
2022-10-04T13:46:57.350Z,1011.51
2022-10-04T13:47:57.344Z,1011.56
2022-10-04T13:48:57.355Z,1011.53
2022-10-04T13:49:57.321Z,1011.50
2022-10-04T13:50:57.315Z,1011.51
2022-10-04T13:51:57.301Z,1011.50
2022-10-04T13:52:57.294Z,1011.49
2022-10-04T13:53:57.289Z,1011.49
2022-10-04T13:54:57.266Z,1011.49
2022-10-04T13:55:57.264Z,1011.49
2022-10-04T13:56:57.251Z,1011.43
2022-10-04T13:57:57.259Z,1011.40
2022-10-04T13:58:57.234Z,1011.34
2022-10-04T14:09:30.714Z,1011.32
2022-10-04T14:10:30.692Z,1011.38
2022-10-04T14:11:30.673Z,1011.35
2022-10-04T14:12:30.665Z,1011.32
2022-10-04T14:13:30.659Z,1011.25
2022-10-04T14:14:30.662Z,1011.29
2022-10-04T14:15:30.637Z,1011.29
2022-10-04T14:16:30.675Z,1011.35
2022-10-04T14:17:30.614Z,1011.46
2022-10-04T14:18:30.607Z,1011.46
2022-10-04T14:19:30.604Z,1011.48
2022-10-04T14:20:30.576Z,1011.52
2022-10-04T14:21:30.574Z,1011.53
2022-10-04T14:22:30.605Z,1011.49
2022-10-04T14:23:30.555Z,1011.47
2022-10-04T14:24:30.568Z,1011.44
2022-10-04T14:25:30.581Z,1011.34
2022-10-04T14:26:30.518Z,1011.29
2022-10-04T14:27:30.532Z,1011.21
2022-10-04T14:28:30.559Z,1011.11
2022-10-04T14:29:30.489Z,1011.09
2022-10-04T14:30:30.496Z,1011.08
2022-10-04T14:31:36.044Z,1011.05
2022-10-04T14:32:30.463Z,1011.08
2022-10-04T14:33:30.452Z,1010.98
2022-10-04T14:34:30.455Z,1010.97
2022-10-04T14:35:30.447Z,1010.90
2022-10-04T14:36:30.582Z,1010.82
2022-10-04T14:37:30.423Z,1010.82
2022-10-04T14:38:30.434Z,1010.79
2022-10-04T14:39:30.397Z,1010.79
2022-10-04T14:40:30.528Z,1010.74
